Time;durP1;ratioP1;P1;durP2;ratioP2;P2;SDS_P1;SDS_P2;PMS_P1;PMS_P2;Temp;Humidity;BMP_temperature;BMP_pressure;BME280_temperature;BME280_humidity;BME280_pressure;Samples;Min_cycle;Max_cycle;Signal;HPM_P1;HPM_P2
2023/10/05 00:00:27;;;;;;;9.05;4.80;;;12.20;99.90;;;;;;2080205;28;20489;-69
2023/10/05 00:01:37;;;;;;;9.10;4.50;;;12.20;99.90;;;;;;2086205;28;20050;-68
2023/10/05 00:02:44;;;;;;;9.50;4.72;;;12.20;99.90;;;;;;2088871;28;21192;-68
2023/10/05 00:03:47;;;;;;;11.35;4.65;;;12.20;99.90;;;;;;2084250;28;20029;-69
2023/10/05 00:04:50;;;;;;;11.85;4.60;;;12.20;99.90;;;;;;2084175;28;20025;-68
2023/10/05 00:05:53;;;;;;;9.20;4.20;;;12.20;99.90;;;;;;2081108;28;20021;-69
2023/10/05 00:06:54;;;;;;;8.77;4.30;;;12.30;99.90;;;;;;2083672;28;20043;-69
2023/10/05 00:07:55;;;;;;;10.70;4.43;;;12.30;99.90;;;;;;2099221;28;20028;-69
2023/10/05 00:08:56;;;;;;;8.15;4.45;;;12.30;99.90;;;;;;2094013;28;20048;-69
2023/10/05 00:09:57;;;;;;;6.65;4.40;;;12.30;99.90;;;;;;2096684;28;20027;-68
2023/10/05 00:10:58;;;;;;;8.48;4.20;;;12.20;99.90;;;;;;2090944;28;20060;-69
2023/10/05 00:12:02;;;;;;;9.23;4.43;;;12.10;99.90;;;;;;2093797;28;20033;-69
2023/10/05 00:13:05;;;;;;;10.05;4.40;;;12.20;99.90;;;;;;2096787;28;20027;-69
2023/10/05 00:14:10;;;;;;;8.38;4.47;;;12.20;99.90;;;;;;2097417;28;20027;-69
2023/10/05 00:15:14;;;;;;;7.85;4.68;;;12.10;99.90;;;;;;2093789;28;20036;-69
2023/10/05 00:16:20;;;;;;;9.25;4.28;;;12.10;99.90;;;;;;2095735;28;20030;-69
2023/10/05 00:17:22;;;;;;;9.65;4.47;;;12.00;99.90;;;;;;2086453;28;20112;-69
2023/10/05 00:18:24;;;;;;;8.80;4.63;;;12.00;99.90;;;;;;2090479;28;20033;-69
2023/10/05 00:19:27;;;;;;;9.05;4.43;;;12.00;99.90;;;;;;2087599;28;20495;-69
2023/10/05 00:20:33;;;;;;;8.68;4.70;;;12.00;99.90;;;;;;2095111;28;20027;-69
2023/10/05 00:21:35;;;;;;;10.60;4.82;;;11.90;99.90;;;;;;2083988;28;20037;-69
2023/10/05 00:22:37;;;;;;;9.32;4.57;;;11.90;99.90;;;;;;2076469;28;20034;-69
2023/10/05 00:23:37;;;;;;;9.00;4.70;;;11.90;99.90;;;;;;2086446;28;20017;-69
2023/10/05 00:24:39;;;;;;;9.60;4.95;;;11.90;99.90;;;;;;2095807;28;20028;-69
2023/10/05 00:25:40;;;;;;;9.65;4.93;;;11.90;99.90;;;;;;2089439;28;21280;-69
2023/10/05 00:26:43;;;;;;;9.50;4.78;;;11.90;99.90;;;;;;2091332;28;20148;-69
2023/10/05 00:27:44;;;;;;;8.80;4.80;;;11.80;99.90;;;;;;2082254;28;20032;-69
2023/10/05 00:28:55;;;;;;;11.13;5.10;;;11.80;99.90;;;;;;2075103;28;20029;-71
2023/10/05 00:29:57;;;;;;;6.53;4.40;;;11.80;99.90;;;;;;2080227;28;20021;-69
2023/10/05 00:31:00;;;;;;;10.35;4.65;;;11.70;99.90;;;;;;2084335;28;20031;-69
2023/10/05 00:32:01;;;;;;;10.60;5.00;;;11.70;99.90;;;;;;2079519;28;20032;-69
2023/10/05 00:33:04;;;;;;;8.82;4.50;;;11.70;99.90;;;;;;2087657;28;20111;-69
2023/10/05 00:34:09;;;;;;;9.85;4.88;;;11.70;99.90;;;;;;2086942;28;20035;-71
2023/10/05 00:35:16;;;;;;;8.70;4.90;;;11.70;99.90;;;;;;2076211;28;20052;-70
2023/10/05 00:36:18;;;;;;;9.10;4.80;;;11.70;99.90;;;;;;2089764;28;20148;-70
2023/10/05 00:37:18;;;;;;;11.05;4.70;;;11.70;99.90;;;;;;2095545;28;20020;-70
2023/10/05 00:38:19;;;;;;;9.93;5.07;;;11.70;99.90;;;;;;2086594;28;20020;-70
2023/10/05 00:39:21;;;;;;;9.35;4.93;;;11.80;99.90;;;;;;2086398;28;20029;-70
2023/10/05 00:40:35;;;;;;;9.95;4.93;;;11.80;99.90;;;;;;2073133;28;20496;-69
2023/10/05 00:41:37;;;;;;;11.30;4.93;;;11.80;99.90;;;;;;2081334;28;20067;-69
2023/10/05 00:42:38;;;;;;;9.95;4.65;;;11.80;99.90;;;;;;2087065;28;20030;-69
2023/10/05 00:43:38;;;;;;;10.15;4.53;;;11.80;99.90;;;;;;2087337;28;20693;-69
2023/10/05 00:44:41;;;;;;;10.48;5.05;;;11.80;99.90;;;;;;2088258;28;20025;-69
2023/10/05 00:45:47;;;;;;;10.70;5.40;;;11.80;99.90;;;;;;2088549;28;20057;-68
2023/10/05 00:46:50;;;;;;;10.90;5.03;;;11.80;99.90;;;;;;2097260;28;20020;-69
2023/10/05 00:47:57;;;;;;;10.05;5.10;;;11.80;99.90;;;;;;2090830;28;20017;-68
2023/10/05 00:49:18;;;;;;;11.60;5.18;;;11.80;99.90;;;;;;2097106;28;20056;-70
2023/10/05 00:50:19;;;;;;;11.73;5.25;;;11.80;99.90;;;;;;2096128;28;20028;-70
2023/10/05 00:51:23;;;;;;;8.73;4.82;;;11.80;99.90;;;;;;2079492;28;20038;-70
2023/10/05 00:52:25;;;;;;;11.07;5.20;;;11.80;99.90;;;;;;2079667;28;20037;-68
2023/10/05 00:53:30;;;;;;;8.68;5.28;;;11.80;99.90;;;;;;2094427;28;20043;-69
2023/10/05 00:54:32;;;;;;;10.18;5.13;;;11.80;99.90;;;;;;2085123;28;20538;-68
2023/10/05 00:55:35;;;;;;;8.50;4.65;;;11.70;99.90;;;;;;2078626;28;20069;-69
2023/10/05 00:56:38;;;;;;;9.23;4.85;;;11.70;99.90;;;;;;2087025;28;20088;-68
2023/10/05 00:57:39;;;;;;;8.23;4.60;;;11.70;99.90;;;;;;2080755;28;20080;-69
2023/10/05 00:58:48;;;;;;;9.70;4.90;;;11.70;99.90;;;;;;2081399;28;20060;-69
2023/10/05 01:01:03;;;;;;;10.60;4.90;;;11.70;99.90;;;;;;2095895;28;20028;-69
2023/10/05 01:02:06;;;;;;;10.90;5.03;;;11.70;99.90;;;;;;2098133;28;20028;-69
2023/10/05 01:03:33;;;;;;;9.88;5.22;;;11.70;99.90;;;;;;2088091;28;20827;-69
2023/10/05 01:04:37;;;;;;;9.48;4.60;;;11.60;99.90;;;;;;2089987;28;20521;-68
2023/10/05 01:05:49;;;;;;;8.07;4.63;;;11.60;99.90;;;;;;2097676;28;20031;-69
2023/10/05 01:07:06;;;;;;;10.15;4.68;;;11.60;99.90;;;;;;2087387;28;20048;-69
2023/10/05 01:08:14;;;;;;;9.02;4.55;;;11.60;99.90;;;;;;2090049;28;20036;-69
2023/10/05 01:09:39;;;;;;;11.57;5.30;;;11.60;99.90;;;;;;2102183;28;20636;-68
2023/10/05 01:10:48;;;;;;;9.48;4.88;;;11.60;99.90;;;;;;2100451;28;20024;-69
2023/10/05 01:11:54;;;;;;;9.98;5.10;;;11.60;99.90;;;;;;2090605;28;20428;-68
2023/10/05 01:12:56;;;;;;;8.07;4.80;;;11.60;99.90;;;;;;2080816;28;20036;-68
2023/10/05 01:14:00;;;;;;;9.65;5.40;;;11.70;99.90;;;;;;2088201;28;20085;-69
2023/10/05 01:15:05;;;;;;;10.30;4.90;;;11.80;99.90;;;;;;2105033;28;20914;-70
2023/10/05 01:16:19;;;;;;;10.18;5.50;;;11.80;99.90;;;;;;2102608;28;20106;-69
2023/10/05 01:17:28;;;;;;;10.13;4.90;;;11.80;99.90;;;;;;2087496;28;20112;-68
2023/10/05 01:18:30;;;;;;;10.43;4.65;;;11.70;99.90;;;;;;2091314;28;20032;-68
2023/10/05 01:19:32;;;;;;;10.23;4.60;;;11.70;99.90;;;;;;2094594;28;20024;-69
2023/10/05 01:20:36;;;;;;;11.73;4.80;;;11.70;99.90;;;;;;2097140;28;20601;-69
2023/10/05 01:21:38;;;;;;;10.35;4.72;;;11.70;99.90;;;;;;2087554;28;20032;-69
2023/10/05 01:22:39;;;;;;;10.23;4.97;;;11.70;99.90;;;;;;2081032;28;20069;-69
2023/10/05 01:23:41;;;;;;;12.88;4.97;;;11.70;99.90;;;;;;2088653;28;20100;-69
2023/10/05 01:24:45;;;;;;;9.40;4.78;;;11.70;99.90;;;;;;2084737;28;20078;-69
2023/10/05 01:25:45;;;;;;;12.65;5.00;;;11.70;99.90;;;;;;2097290;28;20066;-73
2023/10/05 01:26:46;;;;;;;11.20;5.35;;;11.80;99.90;;;;;;2086079;28;20020;-68
2023/10/05 01:27:49;;;;;;;11.85;5.50;;;11.80;99.90;;;;;;2088368;28;20663;-69
2023/10/05 01:28:49;;;;;;;9.98;4.95;;;11.80;99.90;;;;;;2094627;28;20032;-71
2023/10/05 01:29:50;;;;;;;10.43;5.43;;;11.80;99.90;;;;;;2088359;28;20054;-72
2023/10/05 01:30:52;;;;;;;9.98;5.38;;;11.70;99.90;;;;;;2084217;28;20041;-71
2023/10/05 01:31:53;;;;;;;9.07;4.80;;;11.70;99.90;;;;;;2097497;28;20029;-71
2023/10/05 01:32:54;;;;;;;11.63;5.20;;;11.70;99.90;;;;;;2086041;28;20074;-72
2023/10/05 01:33:55;;;;;;;10.07;4.82;;;11.70;99.90;;;;;;2088417;28;20028;-72
2023/10/05 01:35:00;;;;;;;10.23;5.10;;;11.70;99.90;;;;;;2096144;28;20177;-72
2023/10/05 01:36:00;;;;;;;10.77;5.25;;;11.70;99.90;;;;;;2087941;28;20086;-72
2023/10/05 01:37:02;;;;;;;10.68;5.00;;;11.70;99.90;;;;;;2089300;28;20024;-72
2023/10/05 01:38:03;;;;;;;12.13;5.28;;;11.70;99.90;;;;;;2089474;28;20017;-72
2023/10/05 01:39:08;;;;;;;8.93;4.68;;;11.70;99.90;;;;;;2087156;28;20025;-72
2023/10/05 01:40:14;;;;;;;11.68;5.63;;;11.70;99.90;;;;;;2086316;28;20100;-72
2023/10/05 01:41:16;;;;;;;9.35;4.68;;;11.70;99.90;;;;;;2074925;28;20572;-72
2023/10/05 01:42:16;;;;;;;11.60;5.38;;;11.70;99.90;;;;;;2089901;28;20032;-72
2023/10/05 01:43:18;;;;;;;11.02;5.32;;;11.70;99.90;;;;;;2090773;28;20119;-72
2023/10/05 01:44:18;;;;;;;9.85;5.05;;;11.70;99.90;;;;;;2091276;28;20028;-72
2023/10/05 01:45:28;;;;;;;10.43;5.15;;;11.60;99.90;;;;;;2085751;28;20024;-71
2023/10/05 01:46:31;;;;;;;12.15;5.13;;;11.60;99.90;;;;;;2086582;28;20103;-72
2023/10/05 01:47:31;;;;;;;8.93;5.05;;;11.60;99.90;;;;;;2084369;28;20116;-72
2023/10/05 01:48:32;;;;;;;10.43;5.53;;;11.60;99.90;;;;;;2096207;28;20020;-71
2023/10/05 01:49:33;;;;;;;12.20;5.57;;;11.60;99.90;;;;;;2094473;28;20559;-72
2023/10/05 01:50:33;;;;;;;11.40;5.10;;;11.50;99.90;;;;;;2103583;28;20064;-71
2023/10/05 01:51:35;;;;;;;10.63;5.22;;;11.50;99.90;;;;;;2092262;28;20063;-71
2023/10/05 01:52:36;;;;;;;9.50;5.03;;;11.50;99.90;;;;;;2078906;28;20040;-71
2023/10/05 01:53:36;;;;;;;9.63;5.28;;;11.50;99.90;;;;;;2078584;28;20037;-71
2023/10/05 01:54:37;;;;;;;10.45;5.38;;;11.60;99.90;;;;;;2083326;28;20045;-71
2023/10/05 01:55:39;;;;;;;10.00;5.40;;;11.60;99.90;;;;;;2082272;28;20201;-71
2023/10/05 01:56:43;;;;;;;10.38;5.03;;;11.60;99.90;;;;;;2077544;28;20029;-72
2023/10/05 01:57:44;;;;;;;10.18;5.22;;;11.70;99.90;;;;;;2078666;28;20480;-72
2023/10/05 01:58:50;;;;;;;11.55;5.10;;;11.70;99.90;;;;;;2077041;28;20037;-71
2023/10/05 01:59:50;;;;;;;10.50;5.18;;;11.70;99.90;;;;;;2071416;28;20045;-70
2023/10/05 02:00:51;;;;;;;10.70;5.25;;;11.60;99.90;;;;;;2082515;28;20025;-71
2023/10/05 02:01:54;;;;;;;11.80;5.35;;;11.60;99.90;;;;;;2083173;28;20037;-71
2023/10/05 02:02:55;;;;;;;12.40;5.30;;;11.60;99.90;;;;;;2082835;28;20048;-72
2023/10/05 02:03:59;;;;;;;11.25;5.28;;;11.60;99.90;;;;;;2083215;28;20545;-71
2023/10/05 02:04:59;;;;;;;9.55;5.03;;;11.50;99.90;;;;;;2091867;28;20048;-71
2023/10/05 02:06:05;;;;;;;10.07;5.40;;;11.50;99.90;;;;;;2089905;28;20162;-71
2023/10/05 02:07:05;;;;;;;11.77;5.70;;;11.50;99.90;;;;;;2078958;28;20025;-71
2023/10/05 02:08:06;;;;;;;9.60;5.25;;;11.50;99.90;;;;;;2077482;28;20034;-72
2023/10/05 02:09:11;;;;;;;9.65;5.43;;;11.50;99.90;;;;;;2092072;28;20394;-71
2023/10/05 02:10:13;;;;;;;12.70;5.70;;;11.50;99.90;;;;;;2093131;28;20112;-71
2023/10/05 02:11:24;;;;;;;11.13;5.72;;;11.50;99.90;;;;;;2081565;28;20408;-71
2023/10/05 02:12:29;;;;;;;13.98;5.50;;;11.50;99.90;;;;;;2086818;28;20087;-71
2023/10/05 02:13:33;;;;;;;10.15;5.38;;;11.50;99.90;;;;;;2090698;28;20040;-73
2023/10/05 02:14:43;;;;;;;11.52;5.50;;;11.50;99.90;;;;;;2085886;28;20645;-71
2023/10/05 02:15:52;;;;;;;11.55;5.60;;;11.50;99.90;;;;;;2085356;28;20059;-71
2023/10/05 02:16:53;;;;;;;10.73;5.07;;;11.50;99.90;;;;;;2092396;28;20720;-71
2023/10/05 02:17:54;;;;;;;9.68;5.22;;;11.50;99.90;;;;;;2100245;28;20028;-72
2023/10/05 02:18:56;;;;;;;10.05;5.05;;;11.50;99.90;;;;;;2091129;28;20139;-71
2023/10/05 02:19:56;;;;;;;11.38;5.32;;;11.50;99.90;;;;;;2079098;28;20674;-72
2023/10/05 02:21:05;;;;;;;10.60;5.40;;;11.50;99.90;;;;;;2090491;28;20028;-72
2023/10/05 02:22:11;;;;;;;13.20;5.75;;;11.50;99.90;;;;;;2076497;28;20041;-72
2023/10/05 02:23:25;;;;;;;15.27;5.80;;;11.50;99.90;;;;;;2085614;28;20029;-72
2023/10/05 02:24:30;;;;;;;12.65;5.70;;;11.60;99.90;;;;;;2091639;28;20032;-72
2023/10/05 02:25:33;;;;;;;12.25;5.75;;;11.50;99.90;;;;;;2083343;28;20033;-72
2023/10/05 02:26:35;;;;;;;13.45;5.78;;;11.50;99.90;;;;;;2088699;28;20118;-72
2023/10/05 02:27:42;;;;;;;10.23;5.03;;;11.50;99.90;;;;;;2094218;28;20090;-72
2023/10/05 02:28:42;;;;;;;11.23;5.40;;;11.50;99.90;;;;;;2093685;28;20086;-72
2023/10/05 02:29:46;;;;;;;10.40;5.50;;;11.50;99.90;;;;;;2088554;28;20032;-72
2023/10/05 02:30:47;;;;;;;12.35;5.43;;;11.60;99.90;;;;;;2086242;28;20115;-72
2023/10/05 02:32:02;;;;;;;12.93;5.47;;;11.70;99.90;;;;;;2087729;28;20028;-71
2023/10/05 02:33:09;;;;;;;12.10;5.53;;;11.70;99.90;;;;;;2079836;28;20017;-71
2023/10/05 02:34:10;;;;;;;10.85;5.13;;;11.70;99.90;;;;;;2083416;28;20017;-71
2023/10/05 02:35:24;;;;;;;15.70;8.85;;;11.70;99.90;;;;;;2094370;28;20383;-71
2023/10/05 02:36:28;;;;;;;19.98;12.30;;;11.80;99.90;;;;;;2090971;28;20495;-71
2023/10/05 02:37:28;;;;;;;13.43;7.57;;;11.80;99.90;;;;;;2081543;28;20056;-72
2023/10/05 02:38:29;;;;;;;13.80;6.30;;;11.80;99.90;;;;;;2088475;28;20032;-71
2023/10/05 02:39:32;;;;;;;14.20;6.38;;;11.80;99.90;;;;;;2078412;28;20025;-71
2023/10/05 02:40:39;;;;;;;10.27;5.60;;;11.80;99.90;;;;;;2079971;28;20026;-71
2023/10/05 02:41:40;;;;;;;13.20;5.38;;;11.80;99.90;;;;;;2075262;28;20657;-71
2023/10/05 02:42:43;;;;;;;14.15;5.80;;;11.80;99.90;;;;;;2082568;28;20388;-72
2023/10/05 02:43:52;;;;;;;12.00;5.45;;;11.80;99.90;;;;;;2083292;28;20037;-71
2023/10/05 02:44:54;;;;;;;10.80;5.28;;;11.80;99.90;;;;;;2084304;28;20025;-71
2023/10/05 02:46:08;;;;;;;12.00;5.20;;;11.80;99.90;;;;;;2079554;28;20029;-71
2023/10/05 02:47:10;;;;;;;12.90;5.22;;;11.90;99.90;;;;;;2082012;28;20115;-71
2023/10/05 02:48:11;;;;;;;13.43;5.45;;;11.90;99.90;;;;;;2073625;28;20022;-71
2023/10/05 02:49:15;;;;;;;12.65;5.50;;;11.90;99.90;;;;;;2085016;28;20031;-71
2023/10/05 02:50:16;;;;;;;10.95;5.43;;;11.80;99.90;;;;;;2083213;28;21013;-70
2023/10/05 02:51:18;;;;;;;12.52;5.65;;;11.80;99.90;;;;;;2083627;28;20029;-72
2023/10/05 02:52:20;;;;;;;11.18;5.55;;;11.90;99.90;;;;;;2083776;28;20039;-71
2023/10/05 02:53:22;;;;;;;12.30;5.47;;;11.90;99.90;;;;;;2085202;28;20051;-72
2023/10/05 02:54:25;;;;;;;14.15;5.70;;;11.90;99.90;;;;;;2082486;28;20043;-72
2023/10/05 02:55:32;;;;;;;11.65;5.40;;;11.90;99.90;;;;;;2073391;28;20050;-72
2023/10/05 02:56:33;;;;;;;11.48;5.38;;;11.90;99.90;;;;;;2072415;28;20629;-69
2023/10/05 02:57:34;;;;;;;13.05;5.43;;;11.90;99.90;;;;;;2077802;28;20033;-70
2023/10/05 02:58:34;;;;;;;11.70;5.30;;;11.90;99.90;;;;;;2089985;28;20043;-70
2023/10/05 02:59:35;;;;;;;13.88;5.68;;;12.00;99.90;;;;;;2088100;28;20020;-71
2023/10/05 03:00:37;;;;;;;12.68;5.25;;;12.00;99.90;;;;;;2093563;28;20078;-71
2023/10/05 03:01:38;;;;;;;12.38;5.90;;;12.00;99.90;;;;;;2085373;28;20016;-71
2023/10/05 03:02:45;;;;;;;12.90;5.47;;;12.00;99.90;;;;;;2083389;28;20108;-71
2023/10/05 03:03:47;;;;;;;13.65;5.97;;;12.00;99.90;;;;;;2094381;28;20444;-71
2023/10/05 03:04:48;;;;;;;13.02;5.68;;;12.00;99.90;;;;;;2086553;28;20033;-71
2023/10/05 03:05:53;;;;;;;12.05;5.78;;;12.00;99.90;;;;;;2077092;28;20025;-71
2023/10/05 03:06:53;;;;;;;14.52;6.22;;;12.00;99.90;;;;;;2073043;28;20083;-71
2023/10/05 03:07:54;;;;;;;13.23;6.13;;;12.00;99.90;;;;;;2074228;28;20069;-74
2023/10/05 03:09:01;;;;;;;14.05;5.75;;;12.00;99.90;;;;;;2077421;28;20040;-73
2023/10/05 03:10:02;;;;;;;14.75;5.97;;;12.10;99.90;;;;;;2087544;28;20024;-74
2023/10/05 03:11:10;;;;;;;11.40;5.63;;;12.10;99.90;;;;;;2093296;28;20051;-74
2023/10/05 03:12:12;;;;;;;11.70;5.47;;;12.10;99.90;;;;;;2088894;28;20051;-74
2023/10/05 03:13:13;;;;;;;12.65;5.63;;;12.00;99.90;;;;;;2073811;28;20029;-74
2023/10/05 03:14:17;;;;;;;12.07;5.90;;;12.00;99.90;;;;;;2082717;28;20047;-74
2023/10/05 03:15:23;;;;;;;13.00;5.15;;;12.10;99.90;;;;;;2078939;28;20052;-74
2023/10/05 03:16:28;;;;;;;14.68;6.07;;;12.00;99.90;;;;;;2089664;28;20025;-74
2023/10/05 03:17:31;;;;;;;13.85;6.13;;;12.00;99.90;;;;;;2077396;28;20036;-74
2023/10/05 03:18:40;;;;;;;17.08;6.35;;;12.00;99.90;;;;;;2084078;28;20037;-74
2023/10/05 03:19:41;;;;;;;13.75;6.00;;;12.00;99.90;;;;;;2085994;28;20021;-74
2023/10/05 03:20:44;;;;;;;15.38;5.50;;;12.00;99.90;;;;;;2086308;28;20025;-74
2023/10/05 03:21:45;;;;;;;13.07;5.38;;;12.00;99.90;;;;;;2091386;28;20021;-74
2023/10/05 03:22:46;;;;;;;13.68;5.70;;;12.00;99.90;;;;;;2091030;28;20058;-74
2023/10/05 03:23:47;;;;;;;10.10;5.38;;;12.00;99.90;;;;;;2082339;28;20438;-74
2023/10/05 03:24:48;;;;;;;11.20;5.70;;;12.00;99.90;;;;;;2067922;28;20551;-74
2023/10/05 03:25:52;;;;;;;12.52;5.53;;;12.00;99.90;;;;;;2070098;28;20056;-73
2023/10/05 03:26:56;;;;;;;12.88;5.50;;;12.00;99.90;;;;;;2075398;28;20496;-74
2023/10/05 03:27:57;;;;;;;12.18;5.78;;;12.00;99.90;;;;;;2086760;28;20032;-74
2023/10/05 03:29:00;;;;;;;13.25;5.90;;;12.00;99.90;;;;;;2081056;28;20420;-74
2023/10/05 03:30:06;;;;;;;14.30;5.35;;;11.90;99.90;;;;;;2077413;28;20029;-74
2023/10/05 03:32:19;;;;;;;12.40;5.65;;;12.00;99.90;;;;;;2086048;28;20144;-75
2023/10/05 03:32:48;;;;;;;12.73;5.70;;;12.00;99.90;;;;;;2070499;28;20473;-74
2023/10/05 03:33:52;;;;;;;12.73;5.35;;;12.00;99.90;;;;;;2074613;28;20139;-74
2023/10/05 03:34:55;;;;;;;12.27;5.70;;;12.00;99.90;;;;;;2089792;28;20062;-75
2023/10/05 03:35:58;;;;;;;12.80;5.88;;;12.00;99.90;;;;;;2074962;28;20063;-74
2023/10/05 03:37:08;;;;;;;11.88;6.03;;;12.00;99.90;;;;;;2079866;28;20669;-73
2023/10/05 03:38:09;;;;;;;14.38;5.90;;;12.00;99.90;;;;;;2089068;28;20078;-75
2023/10/05 03:39:10;;;;;;;11.55;5.60;;;12.00;99.90;;;;;;2082229;28;20028;-74
2023/10/05 03:40:24;;;;;;;10.85;5.40;;;12.00;99.90;;;;;;2085646;28;20028;-74
2023/10/05 03:41:26;;;;;;;12.30;5.63;;;12.00;99.90;;;;;;2079167;28;20512;-73
2023/10/05 03:42:27;;;;;;;12.57;5.90;;;12.00;99.90;;;;;;2070458;28;20049;-73
2023/10/05 03:43:31;;;;;;;12.45;5.50;;;11.90;99.90;;;;;;2078299;28;20045;-73
2023/10/05 03:44:31;;;;;;;11.85;5.43;;;11.90;99.90;;;;;;2078203;28;20041;-72
2023/10/05 03:45:32;;;;;;;14.10;5.70;;;11.90;99.90;;;;;;2086985;28;20590;-73
2023/10/05 03:46:34;;;;;;;13.80;5.57;;;12.00;99.90;;;;;;2086552;28;20056;-74
2023/10/05 03:47:39;;;;;;;12.23;5.82;;;11.90;99.90;;;;;;2082264;28;20026;-73
2023/10/05 03:48:42;;;;;;;14.73;6.05;;;11.80;99.90;;;;;;2082559;28;20053;-73
2023/10/05 03:49:54;;;;;;;11.75;5.47;;;11.90;99.90;;;;;;2070172;28;20511;-73
2023/10/05 03:50:55;;;;;;;14.63;5.78;;;11.80;99.90;;;;;;2075591;28;20033;-73
2023/10/05 03:51:56;;;;;;;11.68;5.43;;;11.70;99.90;;;;;;2079039;28;20709;-74
2023/10/05 03:52:57;;;;;;;11.98;5.80;;;11.70;99.90;;;;;;2070442;28;20038;-74
2023/10/05 03:53:58;;;;;;;14.25;5.80;;;11.70;99.90;;;;;;2077728;28;20056;-73
2023/10/05 03:55:09;;;;;;;12.50;5.72;;;11.60;99.90;;;;;;2082486;28;20064;-72
2023/10/05 03:56:12;;;;;;;14.23;6.05;;;11.70;99.90;;;;;;2090146;28;20094;-73
2023/10/05 03:57:13;;;;;;;12.15;5.63;;;11.70;99.90;;;;;;2089320;28;20506;-73
2023/10/05 03:58:16;;;;;;;10.88;5.70;;;11.70;99.90;;;;;;2080436;28;20546;-73
2023/10/05 03:59:17;;;;;;;11.73;5.80;;;11.60;99.90;;;;;;2084337;28;20435;-73
2023/10/05 04:00:31;;;;;;;12.35;5.78;;;11.70;99.90;;;;;;2073431;28;20555;-74
2023/10/05 04:01:32;;;;;;;13.15;5.47;;;11.70;99.90;;;;;;2083502;28;20021;-75
2023/10/05 04:02:33;;;;;;;12.82;5.50;;;11.70;99.90;;;;;;2089614;28;20146;-75
2023/10/05 04:03:35;;;;;;;12.60;5.97;;;11.70;99.90;;;;;;2086805;28;20024;-75
2023/10/05 04:04:37;;;;;;;14.68;6.45;;;11.70;99.90;;;;;;2078154;28;20539;-75
2023/10/05 04:05:39;;;;;;;14.05;6.20;;;11.60;99.90;;;;;;2069921;28;20443;-74
2023/10/05 04:06:41;;;;;;;13.63;5.78;;;11.60;99.90;;;;;;2076012;28;20445;-74
2023/10/05 04:07:42;;;;;;;14.27;6.22;;;11.60;99.90;;;;;;2091236;28;20036;-74
2023/10/05 04:09:00;;;;;;;14.73;5.85;;;11.60;99.90;;;;;;2092723;28;20585;-74
2023/10/05 04:10:02;;;;;;;13.43;5.97;;;11.50;99.90;;;;;;2093033;28;20075;-75
2023/10/05 04:11:04;;;;;;;13.07;6.05;;;11.50;99.90;;;;;;2091507;28;20044;-72
2023/10/05 04:12:05;;;;;;;14.68;6.28;;;11.50;99.90;;;;;;2083685;28;20025;-72
2023/10/05 04:13:06;;;;;;;14.90;6.40;;;11.50;99.90;;;;;;2087178;28;20601;-73
2023/10/05 04:14:08;;;;;;;15.68;5.60;;;11.50;99.90;;;;;;2085791;28;20045;-73
2023/10/05 04:15:11;;;;;;;14.15;5.93;;;11.60;99.90;;;;;;2088532;28;20059;-73
2023/10/05 04:16:18;;;;;;;15.15;5.97;;;11.60;99.90;;;;;;2096304;28;20545;-73
2023/10/05 04:17:21;;;;;;;14.15;5.68;;;11.70;99.90;;;;;;2095030;28;20032;-74
2023/10/05 04:18:21;;;;;;;14.10;6.15;;;11.70;99.90;;;;;;2088142;28;20064;-73
2023/10/05 04:19:22;;;;;;;15.27;6.03;;;11.80;99.90;;;;;;2079774;28;20307;-73
2023/10/05 04:20:29;;;;;;;14.93;5.72;;;11.80;99.90;;;;;;2079805;28;20723;-74
2023/10/05 04:21:33;;;;;;;16.52;6.15;;;11.80;99.90;;;;;;2093041;28;20532;-74
2023/10/05 04:22:34;;;;;;;18.00;6.72;;;11.90;99.90;;;;;;2101041;28;20028;-75
2023/10/05 04:23:35;;;;;;;14.70;6.40;;;11.90;99.90;;;;;;2097216;28;20024;-73
2023/10/05 04:24:35;;;;;;;15.63;6.30;;;11.90;99.90;;;;;;2084089;28;20028;-75
2023/10/05 04:25:36;;;;;;;13.52;5.85;;;11.90;99.90;;;;;;2079245;28;20745;-74
2023/10/05 04:26:37;;;;;;;11.57;5.65;;;11.90;99.90;;;;;;2084274;28;20553;-74
2023/10/05 04:27:38;;;;;;;14.57;5.90;;;12.00;99.90;;;;;;2081539;28;20037;-74
2023/10/05 04:28:51;;;;;;;15.32;5.93;;;12.00;99.90;;;;;;2080678;28;20048;-74
2023/10/05 04:29:52;;;;;;;14.20;5.78;;;12.00;99.90;;;;;;2084947;28;20407;-74
2023/10/05 04:30:52;;;;;;;13.63;5.90;;;12.00;99.90;;;;;;2084617;28;20031;-74
2023/10/05 04:31:53;;;;;;;13.52;5.72;;;12.00;99.90;;;;;;2078823;28;20684;-74
2023/10/05 04:32:54;;;;;;;13.85;6.07;;;12.00;99.90;;;;;;2075581;28;20052;-73
2023/10/05 04:33:56;;;;;;;14.13;6.18;;;12.00;99.90;;;;;;2084566;28;20071;-73
2023/10/05 04:34:56;;;;;;;14.82;6.05;;;12.00;99.90;;;;;;2075527;28;20497;-73
2023/10/05 04:35:57;;;;;;;13.68;6.30;;;12.00;99.90;;;;;;2079309;28;20110;-74
2023/10/05 04:36:58;;;;;;;15.95;6.30;;;12.00;99.90;;;;;;2083708;28;20033;-73
2023/10/05 04:38:00;;;;;;;15.93;6.53;;;12.00;99.90;;;;;;2084371;28;20571;-74
2023/10/05 04:39:01;;;;;;;13.48;5.97;;;12.10;99.90;;;;;;2079438;28;20104;-73
2023/10/05 04:40:07;;;;;;;14.93;6.20;;;12.00;99.90;;;;;;2080055;28;20706;-73
2023/10/05 04:41:10;;;;;;;15.57;6.00;;;12.00;99.90;;;;;;2084238;28;20021;-74
2023/10/05 04:42:15;;;;;;;13.85;6.18;;;11.90;99.90;;;;;;2087322;28;20104;-73
2023/10/05 04:43:17;;;;;;;18.80;6.05;;;12.00;99.90;;;;;;2084481;28;20090;-73
2023/10/05 04:44:17;;;;;;;16.77;6.38;;;12.00;99.90;;;;;;2075510;28;20021;-74
2023/10/05 04:45:20;;;;;;;14.35;6.15;;;11.90;99.90;;;;;;2075313;28;20705;-74
2023/10/05 04:46:21;;;;;;;16.38;6.68;;;11.90;99.90;;;;;;2075316;28;20017;-74
2023/10/05 04:47:22;;;;;;;14.77;6.72;;;11.90;99.90;;;;;;2075616;28;20669;-79
2023/10/05 04:48:23;;;;;;;15.90;6.43;;;11.90;99.90;;;;;;2083889;28;20103;-78
2023/10/05 04:49:27;;;;;;;15.25;6.30;;;11.90;99.90;;;;;;2084265;28;20024;-81
2023/10/05 04:50:27;;;;;;;18.48;6.18;;;11.90;99.90;;;;;;2084396;28;20060;-78
2023/10/05 04:51:30;;;;;;;14.43;6.10;;;11.90;99.90;;;;;;2086439;28;20065;-78
2023/10/05 04:52:33;;;;;;;15.55;6.50;;;11.90;99.90;;;;;;2084918;28;20774;-78
2023/10/05 04:53:38;;;;;;;15.35;6.30;;;11.90;99.90;;;;;;2080717;28;20021;-77
2023/10/05 04:54:40;;;;;;;17.08;6.18;;;11.80;99.90;;;;;;2084237;28;20067;-76
2023/10/05 04:55:42;;;;;;;16.70;6.82;;;11.80;99.90;;;;;;2084833;28;20021;-77
2023/10/05 04:57:50;;;;;;;16.20;6.43;;;11.80;99.90;;;;;;2076943;28;20057;-76
2023/10/05 04:58:53;;;;;;;16.25;6.40;;;11.80;99.90;;;;;;2075317;28;20038;-76
2023/10/05 05:00:48;;;;;;;17.25;6.47;;;11.80;99.90;;;;;;2064574;28;20052;-76
2023/10/05 05:01:29;;;;;;;17.77;6.97;;;11.80;99.90;;;;;;2075016;28;20035;-76
2023/10/05 05:02:57;;;;;;;16.63;6.13;;;11.90;99.90;;;;;;2079482;28;20681;-77
2023/10/05 05:03:56;;;;;;;15.48;6.45;;;11.90;99.90;;;;;;2074069;28;20029;-73
2023/10/05 05:05:21;;;;;;;15.18;6.57;;;11.90;99.90;;;;;;2077301;28;20076;-74
2023/10/05 05:06:25;;;;;;;16.90;6.90;;;11.90;99.90;;;;;;2084986;28;20025;-73
2023/10/05 05:07:26;;;;;;;15.38;6.35;;;11.90;99.90;;;;;;2085346;28;20037;-73
2023/10/05 05:08:27;;;;;;;14.88;6.80;;;11.90;99.90;;;;;;2084229;28;20052;-73
2023/10/05 05:09:34;;;;;;;17.10;6.18;;;11.90;99.90;;;;;;2083880;28;20047;-73
2023/10/05 05:10:36;;;;;;;16.95;6.57;;;12.00;99.90;;;;;;2083008;28;20036;-73
2023/10/05 05:11:36;;;;;;;17.02;6.68;;;11.90;99.90;;;;;;2087721;28;20032;-73
2023/10/05 05:12:38;;;;;;;15.43;7.28;;;11.90;99.90;;;;;;2083849;28;20680;-73
2023/10/05 05:13:39;;;;;;;17.65;6.60;;;12.00;99.90;;;;;;2082255;28;20041;-73
2023/10/05 05:14:44;;;;;;;17.92;7.10;;;12.00;99.90;;;;;;2080338;28;20037;-74
2023/10/05 05:15:45;;;;;;;16.15;7.03;;;12.00;99.90;;;;;;2084121;28;20025;-74
2023/10/05 05:16:46;;;;;;;15.63;6.70;;;12.00;99.90;;;;;;2084531;28;20033;-73
2023/10/05 05:17:47;;;;;;;17.52;6.88;;;12.10;99.90;;;;;;2087853;28;20020;-73
2023/10/05 05:18:48;;;;;;;18.15;7.03;;;12.10;99.90;;;;;;2087202;28;20572;-74
2023/10/05 05:19:51;;;;;;;17.88;6.97;;;12.10;99.90;;;;;;2075497;28;20068;-74
2023/10/05 05:20:53;;;;;;;17.33;6.95;;;12.10;99.90;;;;;;2076839;28;20040;-73
2023/10/05 05:21:54;;;;;;;16.77;6.93;;;12.10;99.90;;;;;;2074893;28;20515;-72
2023/10/05 05:22:55;;;;;;;18.95;7.47;;;12.10;99.90;;;;;;2075205;28;20028;-72
2023/10/05 05:23:58;;;;;;;16.55;6.70;;;12.20;99.90;;;;;;2083943;28;20037;-72
2023/10/05 05:24:58;;;;;;;16.00;7.20;;;12.10;99.90;;;;;;2080318;28;20029;-73
2023/10/05 05:25:59;;;;;;;16.98;6.47;;;12.10;99.90;;;;;;2087744;28;20037;-77
2023/10/05 05:27:11;;;;;;;17.42;7.05;;;12.10;99.90;;;;;;2087779;28;20375;-73
2023/10/05 05:28:11;;;;;;;18.95;7.15;;;12.10;99.90;;;;;;2090698;28;20032;-74
2023/10/05 05:29:13;;;;;;;16.80;7.38;;;12.10;99.90;;;;;;2079271;28;20604;-76
2023/10/05 05:30:26;;;;;;;17.73;7.03;;;12.10;99.90;;;;;;2081330;28;20048;-82